createdAt,value
2023-03-11T07:20:50.365Z,0.80
2023-03-11T07:40:44.367Z,0.80
2023-03-11T08:48:11.120Z,0.80
2023-03-11T09:00:22.852Z,0.80
2023-03-11T09:05:17.015Z,0.90
2023-03-11T09:10:14.497Z,0.90
2023-03-11T09:24:45.027Z,0.80
2023-03-11T09:37:40.476Z,0.80
2023-03-11T09:42:42.224Z,0.90
2023-03-11T09:47:42.101Z,0.80
2023-03-11T09:52:44.250Z,0.73
2023-03-11T09:57:39.618Z,0.90
2023-03-11T10:02:34.008Z,1.00
2023-03-11T10:07:33.815Z,0.80
2023-03-11T10:12:43.030Z,0.73
2023-03-11T10:17:54.270Z,0.80
2023-03-11T10:22:58.163Z,0.87
2023-03-11T10:27:57.185Z,0.80
2023-03-11T10:32:56.370Z,0.80
2023-03-11T10:37:54.753Z,0.90
2023-03-11T10:42:49.141Z,0.70
2023-03-11T10:47:44.177Z,0.80
2023-03-11T10:52:46.010Z,0.80
2023-03-11T10:57:40.087Z,0.77
2023-03-11T11:02:39.301Z,0.70
2023-03-11T11:07:36.438Z,0.70
2023-03-11T11:12:29.942Z,0.80
2023-03-11T11:17:28.463Z,0.77
2023-03-11T11:22:23.626Z,0.80
2023-03-11T11:27:21.952Z,0.73
2023-03-11T11:32:24.972Z,0.80
2023-03-11T11:37:18.454Z,0.80
2023-03-11T11:42:14.008Z,0.80
2023-03-11T11:47:15.837Z,0.70
2023-03-11T11:52:14.402Z,0.70
2023-03-11T11:57:14.377Z,0.60
2023-03-11T12:02:29.901Z,0.83
2023-03-11T12:07:41.520Z,0.90
2023-03-11T12:12:42.569Z,0.67
2023-03-11T12:17:43.124Z,0.63
2023-03-11T12:23:07.143Z,0.90
2023-03-11T12:28:11.205Z,0.90
2023-03-11T12:33:14.064Z,0.70
2023-03-11T12:38:17.518Z,0.80
2023-03-11T12:43:26.064Z,1.30
2023-03-11T12:48:35.432Z,0.90
2023-03-11T12:53:45.798Z,0.70
2023-03-11T12:58:57.666Z,0.70
2023-03-11T13:09:43.779Z,0.77
2023-03-11T13:14:37.647Z,0.73
2023-03-11T13:19:48.182Z,0.90
2023-03-11T13:24:52.379Z,0.70
2023-03-11T13:29:55.389Z,0.80
2023-03-11T13:34:57.431Z,0.80
2023-03-11T13:40:04.133Z,0.90
2023-03-11T13:44:59.149Z,0.63
2023-03-11T13:49:56.639Z,0.70
2023-03-11T13:54:54.129Z,0.80
2023-03-11T13:59:54.156Z,0.70
2023-03-11T14:04:51.756Z,0.60
2023-03-11T14:09:46.404Z,0.80
2023-03-11T14:14:49.516Z,0.80
2023-03-11T14:19:44.811Z,0.80
2023-03-11T14:24:47.802Z,0.77
2023-03-11T14:29:44.044Z,0.67
2023-03-11T14:34:42.481Z,0.70
2023-03-11T14:39:39.147Z,0.90
2023-03-11T14:44:35.674Z,1.00
2023-03-11T14:49:29.327Z,0.90
2023-03-11T14:54:25.925Z,0.80
2023-03-11T14:59:27.986Z,0.90
2023-03-11T15:04:32.763Z,1.00
2023-03-11T15:09:28.193Z,0.90
2023-03-11T15:14:26.546Z,0.87
2023-03-11T15:19:25.041Z,1.00
2023-03-11T15:24:22.794Z,0.90
2023-03-11T15:29:18.586Z,0.95
2023-03-11T15:34:25.532Z,0.90
2023-03-11T15:39:20.700Z,0.90
2023-03-11T15:44:29.976Z,0.97
2023-03-11T15:49:25.303Z,1.00
2023-03-11T15:54:18.864Z,1.00
2023-03-11T15:59:16.628Z,0.90
2023-03-11T16:04:15.311Z,1.07
2023-03-11T16:09:10.895Z,1.10
2023-03-11T16:14:04.857Z,1.10
2023-03-11T16:18:58.354Z,1.40
2023-03-11T16:23:52.502Z,1.00
2023-03-11T16:28:48.986Z,1.10
2023-03-11T16:33:43.183Z,1.00
2023-03-11T16:38:45.512Z,1.70
2023-03-11T16:43:39.274Z,0.93
2023-03-11T16:48:35.042Z,1.10
2023-03-11T16:53:28.734Z,1.00
2023-03-11T16:58:23.132Z,1.13
2023-03-11T17:03:21.588Z,1.30
2023-03-11T17:08:18.550Z,1.50
2023-03-11T17:13:14.889Z,1.60
2023-03-11T17:18:09.653Z,1.70
2023-03-11T17:23:03.162Z,1.97
2023-03-11T17:27:59.224Z,1.53
2023-03-11T17:32:53.119Z,1.83
2023-03-11T17:37:46.608Z,2.70
